Time;durP1;ratioP1;P1;durP2;ratioP2;P2;SDS_P1;SDS_P2;PMS_P1;PMS_P2;Temp;Humidity;BMP_temperature;BMP_pressure;BME280_temperature;BME280_humidity;BME280_pressure;Samples;Min_cycle;Max_cycle;Signal;HPM_P1;HPM_P2
2022/02/24 00:02:55;;;;;;;11.57;2.28;;;9.60;72.70;;;;;;9180246;19;20025;-62
2022/02/24 00:06:01;;;;;;;9.55;1.83;;;9.60;72.80;;;;;;9180114;19;20022;-62
2022/02/24 00:09:07;;;;;;;7.55;1.92;;;9.60;72.70;;;;;;9180919;19;20025;-61
2022/02/24 00:12:15;;;;;;;8.90;2.83;;;9.50;72.60;;;;;;9178517;19;20380;-63
2022/02/24 00:15:20;;;;;;;11.82;2.40;;;9.50;72.60;;;;;;9180675;19;20030;-62
2022/02/24 00:18:25;;;;;;;8.38;2.50;;;9.50;72.50;;;;;;9181112;19;20577;-63
2022/02/24 00:21:30;;;;;;;11.93;2.60;;;9.50;72.50;;;;;;9182264;19;20015;-66
2022/02/24 00:24:35;;;;;;;10.32;2.30;;;9.50;72.60;;;;;;9183024;19;20469;-61
2022/02/24 00:27:42;;;;;;;9.82;2.40;;;9.50;72.60;;;;;;9177071;19;20329;-63
2022/02/24 00:30:47;;;;;;;6.65;2.05;;;9.50;72.50;;;;;;9179272;19;20025;-62
2022/02/24 00:33:52;;;;;;;9.55;2.92;;;9.50;72.60;;;;;;9182460;19;20483;-61
2022/02/24 00:36:58;;;;;;;10.23;2.58;;;9.50;72.50;;;;;;9181268;19;21055;-62
2022/02/24 00:40:03;;;;;;;13.43;2.95;;;9.50;72.60;;;;;;9181189;19;20015;-63
2022/02/24 00:43:11;;;;;;;8.20;2.03;;;9.50;72.60;;;;;;9179073;19;20022;-61
2022/02/24 00:46:17;;;;;;;17.48;3.03;;;9.50;72.50;;;;;;9180585;19;20399;-63
2022/02/24 00:49:23;;;;;;;12.15;2.67;;;9.50;72.60;;;;;;9179956;19;20019;-62
2022/02/24 00:52:28;;;;;;;8.55;2.30;;;9.50;72.60;;;;;;9181919;19;20019;-62
2022/02/24 00:55:33;;;;;;;22.38;4.30;;;9.50;72.50;;;;;;9180033;19;20052;-61
2022/02/24 00:58:41;;;;;;;13.15;2.47;;;9.50;72.50;;;;;;9177635;19;20022;-62
2022/02/24 01:01:47;;;;;;;15.40;2.83;;;9.50;72.50;;;;;;9179038;19;20026;-63
2022/02/24 01:04:55;;;;;;;12.18;2.97;;;9.50;72.60;;;;;;9181570;19;20014;-61
2022/02/24 01:08:01;;;;;;;11.75;2.78;;;9.50;72.60;;;;;;9181766;19;20040;-61
2022/02/24 01:11:07;;;;;;;14.73;2.85;;;9.50;72.60;;;;;;9177531;19;20026;-62
2022/02/24 01:14:14;;;;;;;17.33;3.00;;;9.50;72.60;;;;;;9178961;19;20472;-62
2022/02/24 01:17:19;;;;;;;13.40;2.30;;;9.50;72.50;;;;;;9178964;19;20349;-61
2022/02/24 01:20:24;;;;;;;12.65;2.78;;;9.40;72.50;;;;;;9179831;19;20019;-61
2022/02/24 01:23:29;;;;;;;13.23;3.47;;;9.40;72.50;;;;;;9180198;19;20048;-61
2022/02/24 01:26:35;;;;;;;10.60;2.03;;;9.40;72.50;;;;;;9174023;19;20015;-62
2022/02/24 01:29:42;;;;;;;11.10;2.83;;;9.40;72.50;;;;;;9178312;19;20007;-63
2022/02/24 01:32:47;;;;;;;12.15;2.45;;;9.40;72.40;;;;;;9179085;19;20018;-62
2022/02/24 01:35:52;;;;;;;13.07;3.20;;;9.40;72.40;;;;;;9180439;19;20764;-62
2022/02/24 01:38:57;;;;;;;14.35;4.25;;;9.30;72.40;;;;;;9179746;19;20014;-61
2022/02/24 01:42:03;;;;;;;16.40;3.85;;;9.30;72.50;;;;;;9177699;19;20378;-62
2022/02/24 01:45:12;;;;;;;14.23;2.78;;;9.40;72.50;;;;;;9176318;19;20022;-61
2022/02/24 01:48:17;;;;;;;15.95;2.90;;;9.30;72.40;;;;;;9178295;19;20022;-66
2022/02/24 01:51:22;;;;;;;17.05;3.83;;;9.30;72.40;;;;;;9179493;19;20018;-64
2022/02/24 01:54:28;;;;;;;16.10;3.00;;;9.30;72.40;;;;;;9178315;19;20025;-61
2022/02/24 01:57:33;;;;;;;19.00;3.40;;;9.30;72.40;;;;;;9173910;19;20018;-62
2022/02/24 02:00:41;;;;;;;15.52;3.65;;;9.30;72.40;;;;;;9174977;19;20337;-64
2022/02/24 02:03:47;;;;;;;17.30;2.80;;;9.30;72.40;;;;;;9176402;19;20030;-64
2022/02/24 02:06:52;;;;;;;15.88;3.42;;;9.30;72.40;;;;;;9177627;19;20037;-63
2022/02/24 02:09:58;;;;;;;12.20;2.60;;;9.30;72.40;;;;;;9177867;19;20344;-61
2022/02/24 02:13:03;;;;;;;13.38;3.00;;;9.30;72.40;;;;;;9175314;19;20015;-61
2022/02/24 02:16:12;;;;;;;14.75;3.53;;;9.30;72.40;;;;;;9177205;19;20018;-61
2022/02/24 02:19:20;;;;;;;16.95;3.70;;;9.30;72.40;;;;;;9176414;19;20018;-62
2022/02/24 02:22:28;;;;;;;15.02;3.05;;;9.30;72.40;;;;;;9179328;19;20024;-63
2022/02/24 02:25:33;;;;;;;9.60;3.05;;;9.30;72.40;;;;;;9175625;19;20021;-63
2022/02/24 02:28:38;;;;;;;18.25;3.38;;;9.30;72.40;;;;;;9172838;19;20026;-64
2022/02/24 02:31:43;;;;;;;11.27;2.50;;;9.30;72.40;;;;;;9186277;19;20021;-64
2022/02/24 02:34:48;;;;;;;12.57;2.80;;;9.20;72.30;;;;;;9186646;19;20007;-64
2022/02/24 02:37:57;;;;;;;11.70;3.20;;;9.20;72.30;;;;;;9182355;19;20108;-62
2022/02/24 02:41:02;;;;;;;19.38;4.00;;;9.20;72.30;;;;;;9183626;19;20030;-62
2022/02/24 02:44:08;;;;;;;12.13;3.35;;;9.20;72.30;;;;;;9185680;19;20024;-62
2022/02/24 02:47:13;;;;;;;16.15;3.92;;;9.20;72.40;;;;;;9182170;19;20015;-63
2022/02/24 02:50:18;;;;;;;17.13;3.80;;;9.20;72.50;;;;;;9185073;19;20025;-62
2022/02/24 02:53:25;;;;;;;16.92;4.22;;;9.20;72.50;;;;;;9182597;19;20026;-63
2022/02/24 02:56:30;;;;;;;11.00;4.13;;;9.20;72.50;;;;;;9184370;19;20028;-62
2022/02/24 02:59:35;;;;;;;12.82;3.17;;;9.20;72.50;;;;;;9183948;19;20023;-64
2022/02/24 03:02:40;;;;;;;10.23;3.28;;;9.20;72.60;;;;;;9186490;19;20023;-62
2022/02/24 03:05:46;;;;;;;12.32;3.72;;;9.20;72.60;;;;;;9182869;19;20048;-62
2022/02/24 03:08:54;;;;;;;15.70;3.83;;;9.20;72.60;;;;;;9184399;19;20018;-62
2022/02/24 03:11:59;;;;;;;17.17;3.67;;;9.20;73.30;;;;;;9182921;19;20021;-61
2022/02/24 03:15:04;;;;;;;17.75;4.30;;;9.20;72.70;;;;;;9183587;19;20021;-62
2022/02/24 03:18:09;;;;;;;14.45;3.60;;;9.20;72.70;;;;;;9186263;19;20464;-62
2022/02/24 03:21:14;;;;;;;24.05;3.45;;;9.20;72.70;;;;;;9182555;19;20018;-63
2022/02/24 03:24:21;;;;;;;14.65;3.70;;;9.10;72.70;;;;;;9182674;19;20099;-62
2022/02/24 03:27:26;;;;;;;28.55;3.88;;;9.10;72.70;;;;;;9176860;19;20019;-61
2022/02/24 03:30:32;;;;;;;15.13;3.92;;;9.10;72.70;;;;;;9185108;19;20010;-62
2022/02/24 03:33:38;;;;;;;13.75;3.30;;;9.10;72.80;;;;;;9183691;19;20011;-63
2022/02/24 03:36:43;;;;;;;15.45;3.83;;;9.10;72.80;;;;;;9179515;19;20400;-61
2022/02/24 03:39:51;;;;;;;14.85;4.32;;;9.10;72.80;;;;;;9181023;19;20082;-65
2022/02/24 03:42:56;;;;;;;17.27;4.25;;;9.10;72.80;;;;;;9181535;19;20658;-62
2022/02/24 03:46:01;;;;;;;22.02;4.75;;;9.10;72.80;;;;;;9183006;19;20018;-62
2022/02/24 03:49:07;;;;;;;17.90;6.28;;;9.10;72.90;;;;;;9181557;19;20090;-60
2022/02/24 03:52:12;;;;;;;18.88;4.32;;;9.00;72.80;;;;;;9180239;19;20022;-61
2022/02/24 03:55:20;;;;;;;19.42;3.85;;;9.00;72.90;;;;;;9181090;19;20022;-62
2022/02/24 03:58:25;;;;;;;15.05;4.50;;;9.00;72.80;;;;;;9182057;19;20010;-62
2022/02/24 04:01:30;;;;;;;13.70;3.67;;;9.00;72.90;;;;;;9182900;19;20361;-61
2022/02/24 04:04:35;;;;;;;16.33;4.28;;;9.00;72.90;;;;;;9179136;19;20014;-62
2022/02/24 04:07:42;;;;;;;19.08;4.03;;;9.00;73.00;;;;;;9179026;19;20029;-63
2022/02/24 04:10:49;;;;;;;15.05;4.05;;;9.00;73.00;;;;;;9181193;19;20376;-63
2022/02/24 04:13:55;;;;;;;12.70;4.03;;;9.00;73.00;;;;;;9180921;19;20026;-66
2022/02/24 04:17:00;;;;;;;18.40;3.50;;;8.90;73.00;;;;;;9183161;19;20017;-62
2022/02/24 04:20:06;;;;;;;15.30;4.00;;;8.90;73.00;;;;;;9179798;19;20106;-62
2022/02/24 04:23:11;;;;;;;17.70;3.72;;;8.90;73.00;;;;;;9180100;19;20026;-65
2022/02/24 04:26:18;;;;;;;14.20;3.38;;;8.90;73.10;;;;;;9177983;19;20022;-61
2022/02/24 04:29:23;;;;;;;25.25;4.45;;;8.90;73.70;;;;;;9182520;19;20472;-62
2022/02/24 04:32:28;;;;;;;15.88;3.65;;;8.90;73.10;;;;;;9184212;19;20018;-62
2022/02/24 04:35:33;;;;;;;15.25;4.22;;;8.90;73.10;;;;;;9180660;19;20023;-61
2022/02/24 04:38:38;;;;;;;12.68;3.92;;;8.90;73.10;;;;;;9179392;19;20018;-63
2022/02/24 04:41:46;;;;;;;11.60;3.30;;;8.90;73.10;;;;;;9181946;19;20019;-65
2022/02/24 04:44:51;;;;;;;15.40;3.40;;;8.90;73.10;;;;;;9181226;19;20102;-63
2022/02/24 04:47:57;;;;;;;18.83;3.20;;;8.90;73.10;;;;;;9180162;19;20026;-62
2022/02/24 04:51:02;;;;;;;15.80;3.03;;;8.90;73.20;;;;;;9179342;19;20021;-63
2022/02/24 04:54:07;;;;;;;14.25;2.67;;;8.90;73.10;;;;;;9178126;19;20015;-62
2022/02/24 04:57:15;;;;;;;19.20;3.42;;;8.90;73.20;;;;;;9180294;19;20018;-64
2022/02/24 05:00:21;;;;;;;17.50;3.05;;;8.90;73.10;;;;;;9179461;19;20014;-62
2022/02/24 05:03:26;;;;;;;17.88;3.78;;;8.90;73.20;;;;;;9179747;19;20015;-62
2022/02/24 05:06:31;;;;;;;15.88;3.35;;;8.90;73.20;;;;;;9177224;19;20507;-63
2022/02/24 05:09:36;;;;;;;19.00;3.28;;;8.80;73.20;;;;;;9178895;19;20500;-61
2022/02/24 05:12:44;;;;;;;14.23;3.40;;;8.80;73.10;;;;;;9180649;19;20101;-62
2022/02/24 05:15:49;;;;;;;14.95;2.90;;;8.80;73.10;;;;;;9180526;19;20074;-62
2022/02/24 05:18:55;;;;;;;13.00;2.92;;;8.80;73.20;;;;;;9180456;19;20045;-62
2022/02/24 05:22:00;;;;;;;9.15;2.80;;;8.80;73.10;;;;;;9178266;19;20064;-62
2022/02/24 05:25:06;;;;;;;16.42;3.92;;;8.80;73.20;;;;;;9177957;19;20480;-64
2022/02/24 05:28:14;;;;;;;13.10;3.58;;;8.90;73.20;;;;;;9175561;19;20015;-63
2022/02/24 05:31:19;;;;;;;12.05;3.38;;;8.80;73.20;;;;;;9180230;19;20018;-62
2022/02/24 05:34:26;;;;;;;15.48;3.42;;;8.80;73.30;;;;;;9179011;19;20021;-62
2022/02/24 05:37:34;;;;;;;15.52;3.88;;;8.80;73.90;;;;;;9175988;19;20349;-63
2022/02/24 05:40:39;;;;;;;16.52;3.53;;;8.80;73.90;;;;;;9178464;19;20018;-63
2022/02/24 05:43:47;;;;;;;18.65;3.70;;;8.80;73.40;;;;;;9179382;19;20102;-62
2022/02/24 05:46:52;;;;;;;10.30;3.58;;;8.80;73.40;;;;;;9179385;19;20074;-61
2022/02/24 05:49:57;;;;;;;14.05;3.70;;;8.80;73.40;;;;;;9179501;19;20022;-62
2022/02/24 05:53:03;;;;;;;16.00;4.43;;;8.80;73.50;;;;;;9177231;19;20029;-63
2022/02/24 05:56:08;;;;;;;15.75;3.38;;;8.80;73.50;;;;;;9178545;19;20363;-62
2022/02/24 05:59:16;;;;;;;13.70;3.50;;;8.80;73.50;;;;;;9179474;19;20037;-62
2022/02/24 06:02:21;;;;;;;14.68;4.05;;;8.80;73.60;;;;;;9176416;19;20022;-62
2022/02/24 06:05:27;;;;;;;9.32;3.38;;;8.80;73.60;;;;;;9175785;19;20356;-62
2022/02/24 06:08:31;;;;;;;16.38;4.03;;;8.80;73.60;;;;;;9176505;19;20051;-61
2022/02/24 06:11:37;;;;;;;18.83;4.18;;;8.80;73.70;;;;;;9175587;19;20030;-61
2022/02/24 06:14:44;;;;;;;13.40;3.80;;;8.80;73.60;;;;;;9177328;19;20014;-63
2022/02/24 06:17:50;;;;;;;14.15;3.72;;;8.80;73.70;;;;;;9179147;19;20021;-62
2022/02/24 06:20:55;;;;;;;17.65;3.28;;;8.80;73.70;;;;;;9176496;19;20025;-62
2022/02/24 06:24:00;;;;;;;17.35;3.28;;;8.80;73.70;;;;;;9174483;19;20379;-63
2022/02/24 06:27:05;;;;;;;17.48;3.65;;;8.80;73.70;;;;;;9169904;19;20015;-61
2022/02/24 06:30:14;;;;;;;16.85;3.45;;;8.80;73.80;;;;;;9175243;19;20026;-61
2022/02/24 06:33:19;;;;;;;14.90;3.33;;;8.80;73.70;;;;;;9177283;19;20391;-61
2022/02/24 06:36:24;;;;;;;21.55;3.67;;;8.80;73.70;;;;;;9174985;19;20019;-62
2022/02/24 06:39:29;;;;;;;15.98;3.15;;;8.80;73.70;;;;;;9175731;19;21334;-63
2022/02/24 06:42:35;;;;;;;14.93;2.97;;;8.80;73.70;;;;;;9177191;19;20037;-62
2022/02/24 06:45:43;;;;;;;14.95;3.33;;;8.80;73.70;;;;;;9176804;19;20015;-63
2022/02/24 06:48:48;;;;;;;14.88;4.68;;;8.80;73.70;;;;;;9176821;19;20014;-63
2022/02/24 06:51:55;;;;;;;17.42;4.13;;;8.80;73.80;;;;;;9173957;19;20011;-62
2022/02/24 06:55:00;;;;;;;9.48;3.05;;;8.90;73.90;;;;;;9174636;19;20022;-62
2022/02/24 06:58:05;;;;;;;22.77;3.47;;;8.80;73.80;;;;;;9171889;19;20837;-61
2022/02/24 07:01:12;;;;;;;18.73;3.53;;;8.80;73.80;;;;;;9176412;19;20018;-62
2022/02/24 07:04:18;;;;;;;16.80;3.20;;;8.80;73.80;;;;;;9175056;19;20026;-63
2022/02/24 07:07:23;;;;;;;9.55;3.05;;;8.80;74.40;;;;;;9172227;19;20033;-63
2022/02/24 07:10:28;;;;;;;16.67;3.13;;;8.90;73.90;;;;;;9170803;19;20022;-62
2022/02/24 07:13:33;;;;;;;16.05;3.25;;;8.80;73.80;;;;;;9170395;19;20056;-63
2022/02/24 07:17:01;;;;;;;17.35;4.40;;;8.90;73.90;;;;;;9176816;19;20050;-63
2022/02/24 07:20:07;;;;;;;9.32;3.00;;;8.90;73.90;;;;;;9179298;19;20014;-63
2022/02/24 07:23:13;;;;;;;15.25;3.22;;;8.90;73.90;;;;;;9174492;19;20047;-62
2022/02/24 07:26:18;;;;;;;20.80;3.28;;;8.90;74.00;;;;;;9168861;19;20412;-65
2022/02/24 07:29:23;;;;;;;14.45;3.67;;;8.90;74.00;;;;;;9177963;19;20022;-63
2022/02/24 07:32:30;;;;;;;11.88;2.97;;;8.90;74.00;;;;;;9178427;19;20382;-62
2022/02/24 07:35:35;;;;;;;16.10;3.58;;;8.90;74.00;;;;;;9179800;19;20025;-61
2022/02/24 07:38:40;;;;;;;18.65;4.03;;;8.90;74.10;;;;;;9174632;19;20464;-64
2022/02/24 07:41:46;;;;;;;13.93;3.10;;;8.90;74.10;;;;;;9178566;19;20015;-63
2022/02/24 07:44:51;;;;;;;20.48;3.75;;;8.90;74.10;;;;;;9181787;19;20014;-63
2022/02/24 07:47:59;;;;;;;10.80;3.15;;;8.90;74.10;;;;;;9182905;19;20029;-63
2022/02/24 07:51:04;;;;;;;17.20;4.25;;;8.90;74.20;;;;;;9183747;19;20022;-62
2022/02/24 07:54:13;;;;;;;16.45;3.45;;;8.90;74.20;;;;;;9182181;19;20018;-63
2022/02/24 07:57:18;;;;;;;11.05;3.17;;;8.90;74.20;;;;;;9182555;19;20022;-61
2022/02/24 08:00:23;;;;;;;12.52;3.25;;;8.90;74.30;;;;;;9181952;19;20023;-63
2022/02/24 08:03:30;;;;;;;14.27;3.00;;;8.90;74.30;;;;;;9182558;19;20376;-62
2022/02/24 08:06:35;;;;;;;14.90;3.22;;;8.90;74.90;;;;;;9184899;19;20015;-63
2022/02/24 08:09:41;;;;;;;14.35;3.65;;;9.00;74.40;;;;;;9181327;19;20015;-62
2022/02/24 08:12:47;;;;;;;17.05;3.05;;;9.00;74.40;;;;;;9182732;19;20048;-63
2022/02/24 08:15:52;;;;;;;12.85;3.25;;;9.00;74.50;;;;;;9182967;19;20373;-63
2022/02/24 08:19:02;;;;;;;19.80;3.50;;;9.00;74.50;;;;;;9183831;19;20048;-62
2022/02/24 08:22:07;;;;;;;14.73;2.90;;;9.00;74.50;;;;;;9182209;19;20090;-62
2022/02/24 08:25:14;;;;;;;12.27;2.70;;;9.00;74.50;;;;;;9179615;19;20014;-62
2022/02/24 08:28:19;;;;;;;16.25;3.08;;;9.10;74.50;;;;;;9176337;19;20025;-62
2022/02/24 08:31:26;;;;;;;8.13;2.45;;;9.10;74.60;;;;;;9182526;19;20365;-62
2022/02/24 08:34:34;;;;;;;15.48;2.83;;;9.10;74.60;;;;;;9182163;19;20015;-63
2022/02/24 08:37:40;;;;;;;13.90;2.63;;;9.10;74.60;;;;;;9183046;19;20022;-63
2022/02/24 08:40:45;;;;;;;16.67;3.00;;;9.10;74.70;;;;;;9180082;19;20355;-62
2022/02/24 08:43:50;;;;;;;14.75;2.67;;;9.20;74.80;;;;;;9179070;19;20026;-62
2022/02/24 08:46:55;;;;;;;10.38;2.45;;;9.20;74.80;;;;;;9180710;19;20024;-63
2022/02/24 08:50:04;;;;;;;13.43;2.80;;;9.20;74.80;;;;;;9182334;19;20022;-64
2022/02/24 08:53:28;;;;;;;15.88;3.20;;;9.20;74.80;;;;;;9183143;19;20101;-63
2022/02/24 08:56:34;;;;;;;7.22;2.25;;;9.30;74.90;;;;;;9180207;19;20018;-61
2022/02/24 08:59:39;;;;;;;14.25;2.80;;;9.40;75.00;;;;;;9180611;19;20350;-62
2022/02/24 09:02:44;;;;;;;11.70;2.50;;;9.40;74.90;;;;;;9178928;19;20043;-64
2022/02/24 09:05:51;;;;;;;9.40;2.30;;;9.50;74.90;;;;;;9179507;19;20018;-66
2022/02/24 09:08:56;;;;;;;8.13;2.42;;;9.50;74.80;;;;;;9177453;19;20018;-62
2022/02/24 09:12:01;;;;;;;8.10;2.38;;;9.60;74.90;;;;;;9177432;19;20010;-62
2022/02/24 09:15:08;;;;;;;13.13;2.47;;;9.60;74.70;;;;;;9177950;19;20022;-63
2022/02/24 09:18:13;;;;;;;10.80;2.15;;;9.70;74.70;;;;;;9177292;19;20467;-62
2022/02/24 09:21:21;;;;;;;10.57;2.10;;;9.70;74.60;;;;;;9177267;19;20337;-62
2022/02/24 09:24:26;;;;;;;11.35;2.20;;;9.80;74.60;;;;;;9178332;19;20030;-62
2022/02/24 09:27:31;;;;;;;12.18;1.90;;;9.80;74.70;;;;;;9172203;19;20010;-63
2022/02/24 09:30:36;;;;;;;11.98;2.70;;;9.90;74.70;;;;;;9177229;19;20014;-63
2022/02/24 09:33:42;;;;;;;10.73;2.28;;;10.00;74.70;;;;;;9177491;19;20015;-64
2022/02/24 09:36:50;;;;;;;10.13;2.10;;;10.00;74.70;;;;;;9174532;19;20357;-62
2022/02/24 09:39:55;;;;;;;9.90;2.47;;;10.10;74.70;;;;;;9177501;19;20780;-61
2022/02/24 09:43:00;;;;;;;12.85;2.05;;;10.20;74.60;;;;;;9173215;19;20011;-63
2022/02/24 09:46:07;;;;;;;10.07;1.92;;;10.20;75.10;;;;;;9176317;19;20018;-65
2022/02/24 09:49:13;;;;;;;10.40;1.95;;;10.30;74.40;;;;;;9175424;19;20086;-69
2022/02/24 09:52:22;;;;;;;10.77;1.98;;;10.30;74.30;;;;;;9176670;19;20552;-64
2022/02/24 09:55:32;;;;;;;6.20;1.73;;;10.40;74.20;;;;;;9180236;19;20018;-64
2022/02/24 09:58:37;;;;;;;10.52;2.05;;;10.40;74.20;;;;;;9178764;19;20010;-64
2022/02/24 10:01:45;;;;;;;5.53;1.77;;;10.40;74.20;;;;;;9175481;19;20019;-64
2022/02/24 10:05:09;;;;;;;7.20;2.15;;;10.50;74.30;;;;;;9176421;19;20048;-66
2022/02/24 10:08:29;;;;;;;13.48;3.38;;;10.50;74.30;;;;;;9177442;19;20010;-67
2022/02/24 10:11:35;;;;;;;12.07;2.42;;;10.60;74.30;;;;;;9177739;19;20045;-65
2022/02/24 10:14:41;;;;;;;17.17;3.10;;;10.60;74.20;;;;;;9179629;19;20015;-64
2022/02/24 10:17:46;;;;;;;8.15;2.10;;;10.70;74.10;;;;;;9175704;19;20082;-64
2022/02/24 10:20:55;;;;;;;13.63;2.88;;;10.70;74.00;;;;;;9174889;19;20372;-64
2022/02/24 10:24:03;;;;;;;12.75;3.10;;;10.70;74.00;;;;;;9177648;19;20031;-69
2022/02/24 10:27:19;;;;;;;15.25;3.70;;;10.80;73.90;;;;;;9174038;19;20014;-62
2022/02/24 10:30:24;;;;;;;7.75;2.10;;;10.80;73.80;;;;;;9175853;19;20356;-63
2022/02/24 10:33:31;;;;;;;11.25;2.42;;;10.80;73.70;;;;;;9172117;19;20025;-63
2022/02/24 10:36:38;;;;;;;10.57;2.38;;;10.80;73.60;;;;;;9171138;19;20014;-62
2022/02/24 10:39:46;;;;;;;16.08;2.08;;;10.80;73.60;;;;;;9172485;19;20012;-61
2022/02/24 10:42:51;;;;;;;7.57;2.00;;;10.80;73.50;;;;;;9175926;19;20017;-61
2022/02/24 10:46:07;;;;;;;8.45;2.25;;;10.80;73.50;;;;;;9176343;19;20023;-62
2022/02/24 10:49:13;;;;;;;10.00;2.00;;;10.80;74.00;;;;;;9172912;19;20029;-61
2022/02/24 10:52:20;;;;;;;10.10;2.22;;;10.80;73.50;;;;;;9181114;19;20705;-61
2022/02/24 10:55:28;;;;;;;12.10;2.28;;;10.80;73.50;;;;;;9183018;19;20023;-63
2022/02/24 10:58:35;;;;;;;9.45;1.90;;;10.80;73.50;;;;;;9184739;19;20022;-61
2022/02/24 11:01:40;;;;;;;14.30;2.25;;;10.80;73.50;;;;;;9184632;19;20014;-62
2022/02/24 11:04:47;;;;;;;7.07;1.65;;;10.80;73.60;;;;;;9182420;19;20360;-63
2022/02/24 11:07:54;;;;;;;14.40;3.05;;;10.90;73.70;;;;;;9181529;19;20018;-63
2022/02/24 11:11:02;;;;;;;10.50;2.03;;;10.90;73.60;;;;;;9180001;19;20345;-63
2022/02/24 11:14:10;;;;;;;14.32;2.00;;;11.00;73.60;;;;;;9178710;19;20082;-63
2022/02/24 11:17:16;;;;;;;13.25;1.75;;;11.00;73.60;;;;;;9181733;19;20021;-63
2022/02/24 11:20:23;;;;;;;8.80;1.92;;;11.10;73.60;;;;;;9181409;19;20108;-62
2022/02/24 11:23:29;;;;;;;10.13;2.08;;;11.10;73.50;;;;;;9180628;19;20443;-61
2022/02/24 11:26:52;;;;;;;8.77;2.05;;;11.10;73.50;;;;;;9175853;19;20711;-63
2022/02/24 11:30:07;;;;;;;10.07;1.95;;;11.20;73.40;;;;;;9182542;19;20345;-62
2022/02/24 11:33:16;;;;;;;16.63;2.22;;;11.30;73.40;;;;;;9180656;19;20361;-62
2022/02/24 11:36:23;;;;;;;11.48;2.00;;;11.40;73.40;;;;;;9176381;19;20368;-66
2022/02/24 11:39:28;;;;;;;7.70;2.03;;;11.50;73.40;;;;;;9179151;19;20032;-63
2022/02/24 11:42:38;;;;;;;10.00;2.30;;;11.60;73.20;;;;;;9180277;19;20047;-62
2022/02/24 11:45:49;;;;;;;12.15;1.90;;;11.60;73.10;;;;;;9183609;19;20491;-63
2022/02/24 11:48:54;;;;;;;8.73;1.98;;;11.70;73.10;;;;;;9179669;19;20018;-63
2022/02/24 11:52:21;;;;;;;9.43;2.30;;;11.80;73.70;;;;;;9178070;19;20021;-63
2022/02/24 11:55:55;;;;;;;13.38;2.20;;;11.80;72.80;;;;;;9175817;19;20051;-62
2022/02/24 11:59:04;;;;;;;11.63;1.90;;;11.90;72.60;;;;;;9175577;19;20093;-63
2022/02/24 12:02:20;;;;;;;10.93;2.25;;;12.00;72.70;;;;;;9175807;19;20464;-63
2022/02/24 12:05:30;;;;;;;12.52;2.63;;;12.10;72.60;;;;;;9179672;19;20044;-64
2022/02/24 12:09:06;;;;;;;12.38;2.20;;;12.10;72.40;;;;;;9177265;19;20038;-62
2022/02/24 12:12:13;;;;;;;14.18;1.85;;;12.20;72.20;;;;;;9173459;19;20498;-65
2022/02/24 12:15:22;;;;;;;9.75;1.70;;;12.20;72.30;;;;;;9166575;19;20026;-63
2022/02/24 12:18:38;;;;;;;7.97;1.83;;;12.20;72.30;;;;;;9174334;19;20480;-66
2022/02/24 12:21:47;;;;;;;11.15;2.55;;;12.20;72.00;;;;;;9174275;19;20050;-64
2022/02/24 12:24:54;;;;;;;12.90;2.20;;;12.30;72.20;;;;;;9173354;19;20018;-66
2022/02/24 12:28:04;;;;;;;8.68;2.00;;;12.30;72.10;;;;;;9172155;19;20055;-63
2022/02/24 12:31:22;;;;;;;9.82;2.17;;;12.30;72.60;;;;;;9170912;19;20544;-62
2022/02/24 12:34:28;;;;;;;7.13;1.50;;;12.30;71.70;;;;;;9173088;19;20011;-62
2022/02/24 12:37:34;;;;;;;10.27;1.60;;;12.40;71.90;;;;;;9175275;19;20022;-63
2022/02/24 12:40:41;;;;;;;5.70;1.60;;;12.40;71.80;;;;;;9175267;19;20019;-63
2022/02/24 12:43:46;;;;;;;4.10;1.40;;;12.30;71.70;;;;;;9175147;19;20022;-64
2022/02/24 12:46:55;;;;;;;8.75;1.48;;;12.40;71.60;;;;;;9173658;19;20023;-62
2022/02/24 12:50:00;;;;;;;7.32;1.85;;;12.30;71.40;;;;;;9169710;19;20015;-62
2022/02/24 12:53:12;;;;;;;10.13;2.22;;;12.30;71.40;;;;;;9173245;19;20481;-63
2022/02/24 12:56:21;;;;;;;8.43;1.60;;;12.30;71.40;;;;;;9174226;19;20560;-63
2022/02/24 12:59:28;;;;;;;11.82;1.45;;;12.30;71.50;;;;;;9177610;19;20018;-63
2022/02/24 13:02:37;;;;;;;7.43;1.50;;;12.30;71.40;;;;;;9170017;19;20795;-63
2022/02/24 13:05:49;;;;;;;5.00;1.33;;;12.40;71.50;;;;;;9171014;19;20507;-62
2022/02/24 13:12:17;;;;;;;5.43;1.52;;;12.40;71.40;;;;;;9171176;19;20022;-63
2022/02/24 13:15:31;;;;;;;5.00;1.35;;;12.40;71.40;;;;;;9175132;19;20419;-67
2022/02/24 13:18:43;;;;;;;14.20;1.60;;;12.40;71.20;;;;;;9176036;19;20094;-61
2022/02/24 13:21:49;;;;;;;4.95;1.02;;;12.40;71.10;;;;;;9175800;19;20033;-61
2022/02/24 13:24:54;;;;;;;4.50;1.42;;;12.30;71.10;;;;;;9174851;19;20324;-62
2022/02/24 13:28:01;;;;;;;5.57;1.30;;;12.30;71.00;;;;;;9172986;19;20026;-61
2022/02/24 13:31:08;;;;;;;3.45;1.02;;;12.30;71.00;;;;;;9174994;19;20032;-64
2022/02/24 13:34:17;;;;;;;5.53;1.20;;;12.20;70.90;;;;;;9180745;19;20030;-62
2022/02/24 13:37:32;;;;;;;4.95;1.58;;;12.20;70.90;;;;;;9178426;19;20029;-62
2022/02/24 13:40:38;;;;;;;2.95;1.17;;;12.20;70.80;;;;;;9176178;19;20022;-61
2022/02/24 13:43:44;;;;;;;5.00;1.00;;;12.20;71.00;;;;;;9179232;19;20460;-63
2022/02/24 13:46:50;;;;;;;8.93;1.90;;;12.10;71.00;;;;;;9177870;19;20475;-61
2022/02/24 13:49:58;;;;;;;8.73;1.77;;;12.10;71.10;;;;;;9179147;19;20472;-62
2022/02/24 13:53:06;;;;;;;7.38;1.55;;;12.10;71.10;;;;;;9176884;19;20469;-63
2022/02/24 13:56:15;;;;;;;5.15;1.40;;;12.10;71.10;;;;;;9177924;19;20026;-62
2022/02/24 13:59:24;;;;;;;7.60;1.35;;;12.00;71.10;;;;;;9176741;19;20094;-62
2022/02/24 14:02:29;;;;;;;6.90;1.65;;;12.00;71.10;;;;;;9177055;19;20381;-64
2022/02/24 14:05:39;;;;;;;11.02;1.65;;;12.00;71.20;;;;;;9178688;19;20356;-62
2022/02/24 14:08:50;;;;;;;4.38;1.30;;;11.90;71.20;;;;;;9175004;19;20018;-61
2022/02/24 14:11:55;;;;;;;6.03;1.55;;;11.90;71.20;;;;;;9170969;19;20033;-62
2022/02/24 14:15:00;;;;;;;8.18;0.93;;;11.90;71.30;;;;;;9175808;19;20011;-62
2022/02/24 14:18:05;;;;;;;4.95;1.20;;;11.80;71.30;;;;;;9174419;19;20018;-62
2022/02/24 14:21:13;;;;;;;4.03;1.67;;;11.80;71.50;;;;;;9177309;19;20038;-61
2022/02/24 14:24:18;;;;;;;3.25;1.10;;;11.70;71.50;;;;;;9169363;19;20090;-63
2022/02/24 14:27:23;;;;;;;3.67;1.20;;;11.60;71.50;;;;;;9167999;19;20034;-64
2022/02/24 14:30:28;;;;;;;7.25;1.90;;;11.60;71.70;;;;;;9176233;19;20019;-65
2022/02/24 14:33:34;;;;;;;4.57;1.10;;;11.50;71.80;;;;;;9176156;19;20348;-63
2022/02/24 14:36:41;;;;;;;12.05;3.38;;;11.40;71.80;;;;;;9177216;19;20026;-63
2022/02/24 14:39:46;;;;;;;4.57;1.25;;;11.30;72.10;;;;;;9175178;19;20023;-63
2022/02/24 14:42:52;;;;;;;2.10;1.00;;;11.20;72.20;;;;;;9174454;19;20015;-61
2022/02/24 14:45:57;;;;;;;1.02;0.50;;;11.10;72.30;;;;;;9174358;19;20025;-60
2022/02/24 14:49:02;;;;;;;1.73;0.52;;;11.00;72.30;;;;;;9176442;19;20025;-62
2022/02/24 14:52:29;;;;;;;2.08;0.40;;;10.90;72.30;;;;;;9175796;19;20082;-64
2022/02/24 14:55:35;;;;;;;2.05;0.75;;;10.60;72.30;;;;;;9172965;19;20060;-61
2022/02/24 14:58:40;;;;;;;2.47;0.68;;;10.50;72.30;;;;;;9175804;19;20361;-63
2022/02/24 15:01:48;;;;;;;0.30;0.30;;;10.30;72.20;;;;;;9175059;19;20015;-62
2022/02/24 15:04:53;;;;;;;0.52;0.40;;;10.00;72.00;;;;;;9174419;19;20026;-63
2022/02/24 15:08:01;;;;;;;1.17;0.60;;;9.70;72.00;;;;;;9177470;19;20504;-61
2022/02/24 15:11:06;;;;;;;2.05;0.52;;;9.50;72.00;;;;;;9172750;19;20330;-61
2022/02/24 15:14:11;;;;;;;0.47;0.25;;;9.20;72.00;;;;;;9174676;19;20011;-62
2022/02/24 15:17:16;;;;;;;0.15;0.15;;;9.00;72.10;;;;;;9174203;19;20471;-61
2022/02/24 15:20:22;;;;;;;3.97;2.10;;;8.70;72.10;;;;;;9173527;19;20015;-61
2022/02/24 15:23:30;;;;;;;1.75;0.47;;;8.50;72.30;;;;;;9175538;19;20479;-61
2022/02/24 15:26:36;;;;;;;2.15;0.70;;;8.30;72.40;;;;;;9171136;19;20022;-61
2022/02/24 15:29:41;;;;;;;0.38;0.38;;;8.00;72.60;;;;;;9168621;19;20025;-62
2022/02/24 15:32:46;;;;;;;1.25;0.50;;;7.90;72.80;;;;;;9174718;19;20014;-61
2022/02/24 15:35:51;;;;;;;1.92;0.90;;;7.70;73.00;;;;;;9179196;19;20052;-61
2022/02/24 15:39:00;;;;;;;2.17;0.68;;;7.60;73.20;;;;;;9184098;19;20025;-60
2022/02/24 15:42:05;;;;;;;0.30;0.30;;;7.40;73.20;;;;;;9180477;19;20102;-61
2022/02/24 15:45:12;;;;;;;0.93;0.47;;;7.40;73.40;;;;;;9179804;19;20022;-61
2022/02/24 15:48:18;;;;;;;1.70;0.60;;;7.20;73.50;;;;;;9181634;19;20026;-60
2022/02/24 15:51:24;;;;;;;1.48;0.82;;;7.20;73.70;;;;;;9184746;19;20093;-61
2022/02/24 15:54:32;;;;;;;2.40;0.90;;;7.10;73.80;;;;;;9181409;19;20018;-61
2022/02/24 15:57:37;;;;;;;2.50;0.60;;;7.00;73.90;;;;;;9180218;19;20022;-62
2022/02/24 16:00:47;;;;;;;0.35;0.35;;;7.00;74.00;;;;;;9179504;19;20015;-61
2022/02/24 16:03:53;;;;;;;4.70;2.67;;;6.90;74.10;;;;;;9180883;19;20015;-61
2022/02/24 16:06:58;;;;;;;0.50;0.40;;;6.90;74.20;;;;;;9181040;19;20038;-64
2022/02/24 16:10:21;;;;;;;0.55;0.40;;;6.80;74.30;;;;;;9178998;19;20014;-63
2022/02/24 16:13:28;;;;;;;0.60;0.60;;;6.80;74.40;;;;;;9168878;19;20114;-62
2022/02/24 16:16:33;;;;;;;2.60;0.57;;;6.80;74.40;;;;;;9172127;19;20048;-63
2022/02/24 16:19:38;;;;;;;0.80;0.60;;;6.70;74.40;;;;;;9171498;19;20114;-63